Time;durP1;ratioP1;P1;durP2;ratioP2;P2;SDS_P1;SDS_P2;PMS_P1;PMS_P2;Temp;Humidity;BMP_temperature;BMP_pressure;BME280_temperature;BME280_humidity;BME280_pressure;Samples;Min_cycle;Max_cycle;Signal;HPM_P1;HPM_P2
2022/04/08 00:00:17;;;;;;;4.37;1.90;;;7.60;99.90;;;;;;5097434;28;20199;-75
2022/04/08 00:02:44;;;;;;;5.40;1.70;;;7.60;99.90;;;;;;5096705;28;20224;-73
2022/04/08 00:05:11;;;;;;;4.80;1.60;;;7.50;99.90;;;;;;5096836;28;20192;-73
2022/04/08 00:07:38;;;;;;;3.73;1.50;;;7.40;99.90;;;;;;5096423;28;20196;-73
2022/04/08 00:10:07;;;;;;;5.43;1.83;;;7.40;99.90;;;;;;5096325;28;20563;-74
2022/04/08 00:12:34;;;;;;;4.80;1.47;;;7.40;99.90;;;;;;5097164;28;20232;-74
2022/04/08 00:15:03;;;;;;;5.10;1.93;;;7.40;99.90;;;;;;5097276;28;20201;-74
2022/04/08 00:17:30;;;;;;;3.97;1.47;;;7.40;99.90;;;;;;5097002;28;20192;-73
2022/04/08 00:19:57;;;;;;;5.10;1.90;;;7.40;99.90;;;;;;5097774;28;20223;-74
2022/04/08 00:22:24;;;;;;;7.37;2.00;;;7.40;99.90;;;;;;5097552;28;20228;-73
2022/04/08 00:24:50;;;;;;;7.53;1.87;;;7.50;99.90;;;;;;5096110;28;20273;-74
2022/04/08 00:27:18;;;;;;;8.00;1.90;;;7.50;99.90;;;;;;5099396;28;20237;-73
2022/04/08 00:29:45;;;;;;;7.80;1.80;;;7.40;99.90;;;;;;5095990;28;20196;-73
2022/04/08 00:32:12;;;;;;;4.33;1.80;;;7.30;99.90;;;;;;5095723;28;20226;-74
2022/04/08 00:34:38;;;;;;;3.50;1.93;;;7.40;99.90;;;;;;5096484;28;20223;-73
2022/04/08 00:37:05;;;;;;;3.97;1.80;;;7.30;99.90;;;;;;5098080;28;20243;-74
2022/04/08 00:39:32;;;;;;;6.77;1.60;;;7.30;99.90;;;;;;5101102;28;20204;-74
2022/04/08 00:42:00;;;;;;;6.07;1.70;;;7.30;99.90;;;;;;5102817;28;20220;-73
2022/04/08 00:44:29;;;;;;;4.87;1.73;;;7.20;99.90;;;;;;5103106;28;20679;-74
2022/04/08 00:46:55;;;;;;;4.07;1.63;;;7.30;99.90;;;;;;5104552;28;20199;-74
2022/04/08 00:49:22;;;;;;;7.13;1.60;;;7.20;99.90;;;;;;5097935;28;20253;-74
2022/04/08 00:51:49;;;;;;;6.77;1.70;;;7.20;99.90;;;;;;5097541;28;20222;-74
2022/04/08 00:54:15;;;;;;;6.97;1.93;;;7.20;99.90;;;;;;5096215;28;20191;-74
2022/04/08 00:56:42;;;;;;;3.10;1.40;;;7.10;99.90;;;;;;5096378;28;20620;-74
2022/04/08 00:59:09;;;;;;;6.30;1.90;;;7.10;99.90;;;;;;5095516;28;20249;-73
2022/04/08 01:01:37;;;;;;;4.03;1.70;;;7.00;99.90;;;;;;5096979;28;20266;-74
2022/04/08 01:04:04;;;;;;;4.00;1.63;;;7.00;99.90;;;;;;5098246;28;20204;-74
2022/04/08 01:06:31;;;;;;;6.43;1.73;;;7.10;99.90;;;;;;5100090;28;20200;-74
2022/04/08 01:08:57;;;;;;;5.70;1.47;;;7.00;99.90;;;;;;5100580;28;20200;-74
2022/04/08 01:11:24;;;;;;;7.03;1.70;;;7.10;99.90;;;;;;5101773;28;20227;-74
2022/04/08 01:13:52;;;;;;;4.20;1.50;;;7.00;99.90;;;;;;5099847;28;20200;-73
2022/04/08 01:16:19;;;;;;;8.30;1.80;;;7.00;99.90;;;;;;5100270;28;20622;-73
2022/04/08 01:18:47;;;;;;;6.73;1.63;;;7.00;99.90;;;;;;5099798;28;20206;-73
2022/04/08 01:21:14;;;;;;;6.13;1.90;;;7.00;99.90;;;;;;5100431;28;20705;-74
2022/04/08 01:23:47;;;;;;;4.50;1.80;;;6.90;99.90;;;;;;5098740;28;20228;-73
2022/04/08 01:26:15;;;;;;;3.90;1.30;;;7.00;99.90;;;;;;5097456;28;20200;-73
2022/04/08 01:28:44;;;;;;;4.97;1.43;;;7.00;99.90;;;;;;5096635;28;20200;-73
2022/04/08 01:31:11;;;;;;;4.93;1.50;;;7.00;99.90;;;;;;5097317;28;20242;-73
2022/04/08 01:33:37;;;;;;;5.07;1.73;;;6.90;99.90;;;;;;5094755;28;20660;-73
2022/04/08 01:36:04;;;;;;;3.40;1.60;;;6.90;99.90;;;;;;5095173;28;20249;-74
2022/04/08 01:38:31;;;;;;;7.13;2.00;;;6.90;99.90;;;;;;5094250;28;20647;-73
2022/04/08 01:40:58;;;;;;;6.40;1.83;;;6.80;99.90;;;;;;5094275;28;20237;-73
2022/04/08 01:43:26;;;;;;;5.00;1.77;;;6.80;99.90;;;;;;5094097;28;20286;-73
2022/04/08 01:45:52;;;;;;;5.33;1.67;;;6.80;99.90;;;;;;5094051;28;20399;-73
2022/04/08 01:48:19;;;;;;;4.40;1.50;;;6.80;99.90;;;;;;5093766;28;20671;-73
2022/04/08 01:50:46;;;;;;;5.30;1.87;;;6.80;99.90;;;;;;5094395;28;20196;-73
2022/04/08 01:53:15;;;;;;;5.90;2.43;;;6.70;99.90;;;;;;5093762;28;20200;-73
2022/04/08 01:55:42;;;;;;;5.00;1.77;;;6.70;99.90;;;;;;5094114;28;20203;-73
2022/04/08 01:58:10;;;;;;;4.97;1.70;;;6.70;99.90;;;;;;5093860;28;20254;-73
2022/04/08 02:00:38;;;;;;;4.00;1.70;;;6.70;99.90;;;;;;5094129;28;20200;-73
2022/04/08 02:03:05;;;;;;;3.67;1.67;;;6.60;99.90;;;;;;5094036;28;20224;-73
2022/04/08 02:05:32;;;;;;;6.03;1.70;;;6.60;99.90;;;;;;5093461;28;20196;-73
2022/04/08 02:07:59;;;;;;;8.43;2.17;;;6.60;99.90;;;;;;5093555;28;20219;-74
2022/04/08 02:10:26;;;;;;;3.17;1.57;;;6.70;99.90;;;;;;5093628;28;20230;-73
2022/04/08 02:12:52;;;;;;;4.03;1.60;;;6.70;99.90;;;;;;5093864;28;20203;-74
2022/04/08 02:15:21;;;;;;;6.10;1.70;;;6.70;99.90;;;;;;5093893;28;20222;-74
2022/04/08 02:17:49;;;;;;;7.97;1.87;;;6.60;99.90;;;;;;5093679;28;20254;-74
2022/04/08 02:20:16;;;;;;;4.33;1.50;;;6.60;99.90;;;;;;5093570;28;20207;-74
2022/04/08 02:22:43;;;;;;;7.73;1.43;;;6.50;99.90;;;;;;5093914;28;20276;-74
2022/04/08 02:25:11;;;;;;;5.87;1.77;;;6.50;99.90;;;;;;5093380;28;20341;-73
2022/04/08 02:27:38;;;;;;;4.20;1.70;;;6.60;99.90;;;;;;5093571;28;20200;-73
2022/04/08 02:30:05;;;;;;;7.53;1.90;;;6.50;99.90;;;;;;5095785;28;20203;-73
2022/04/08 02:32:32;;;;;;;4.37;1.47;;;6.50;99.90;;;;;;5097810;28;20203;-74
2022/04/08 02:35:00;;;;;;;4.30;1.60;;;6.50;99.90;;;;;;5097505;28;20200;-74
2022/04/08 02:37:27;;;;;;;4.67;1.77;;;6.50;99.90;;;;;;5097929;28;20250;-74
2022/04/08 02:39:53;;;;;;;3.23;1.40;;;6.40;99.90;;;;;;5097851;28;20621;-74
2022/04/08 02:42:20;;;;;;;6.27;2.37;;;6.40;99.90;;;;;;5097536;28;20687;-74
2022/04/08 02:44:46;;;;;;;7.27;1.83;;;6.30;99.90;;;;;;5097878;28;20201;-74
2022/04/08 02:47:13;;;;;;;6.63;1.80;;;6.40;99.90;;;;;;5097516;28;20200;-74
2022/04/08 02:49:40;;;;;;;7.50;1.90;;;6.20;99.90;;;;;;5097613;28;20283;-74
2022/04/08 02:52:08;;;;;;;3.43;1.80;;;6.30;99.90;;;;;;5097910;28;20728;-74
2022/04/08 02:54:35;;;;;;;4.13;1.50;;;6.20;99.90;;;;;;5098380;28;20192;-75
2022/04/08 02:57:02;;;;;;;5.20;1.60;;;6.30;99.90;;;;;;5098745;28;20192;-74
2022/04/08 02:59:28;;;;;;;4.57;1.80;;;6.30;99.90;;;;;;5097719;28;20226;-73
2022/04/08 03:01:55;;;;;;;7.60;1.60;;;6.30;99.90;;;;;;5100663;28;20242;-74
2022/04/08 03:04:22;;;;;;;6.87;1.97;;;6.40;99.90;;;;;;5099108;28;20616;-73
2022/04/08 03:06:49;;;;;;;4.70;1.70;;;6.30;99.90;;;;;;5102457;28;20192;-73
2022/04/08 03:09:17;;;;;;;5.73;1.90;;;6.30;99.90;;;;;;5097969;28;20192;-73
2022/04/08 03:11:43;;;;;;;4.17;1.80;;;6.30;99.90;;;;;;5097588;28;20257;-74
2022/04/08 03:14:10;;;;;;;6.63;2.00;;;6.10;99.90;;;;;;5097182;28;20736;-73
2022/04/08 03:16:36;;;;;;;5.17;1.87;;;6.30;99.90;;;;;;5097276;28;20200;-73
2022/04/08 03:19:03;;;;;;;6.40;1.50;;;6.20;99.90;;;;;;5098091;28;20652;-74
2022/04/08 03:21:30;;;;;;;7.60;2.40;;;6.10;99.90;;;;;;5099105;28;20196;-74
2022/04/08 03:23:57;;;;;;;4.83;1.83;;;6.00;99.90;;;;;;5099218;28;20279;-74
2022/04/08 03:26:25;;;;;;;5.17;1.63;;;6.00;99.90;;;;;;5099565;28;20204;-74
2022/04/08 03:28:52;;;;;;;6.63;1.97;;;6.00;99.90;;;;;;5098961;28;20249;-74
2022/04/08 03:31:18;;;;;;;3.37;1.80;;;6.00;99.90;;;;;;5098891;28;20233;-74
2022/04/08 03:33:45;;;;;;;3.33;1.80;;;6.00;99.90;;;;;;5099067;28;20211;-74
2022/04/08 03:36:13;;;;;;;6.13;2.00;;;5.90;99.90;;;;;;5098629;28;20188;-73
2022/04/08 03:38:39;;;;;;;4.00;1.80;;;5.90;99.90;;;;;;5098275;28;20199;-74
2022/04/08 03:41:06;;;;;;;4.70;1.53;;;5.90;99.90;;;;;;5097598;28;20255;-74
2022/04/08 03:43:34;;;;;;;7.47;2.23;;;5.80;99.90;;;;;;5098006;28;20227;-74
2022/04/08 03:46:01;;;;;;;6.40;2.33;;;5.90;99.90;;;;;;5098829;28;20203;-74
2022/04/08 03:48:28;;;;;;;4.80;1.90;;;5.90;99.90;;;;;;5097676;28;20204;-74
2022/04/08 03:50:55;;;;;;;4.40;1.60;;;5.80;99.90;;;;;;5097086;28;20227;-73
2022/04/08 03:53:23;;;;;;;6.57;2.33;;;5.80;99.90;;;;;;5095856;28;20655;-73
2022/04/08 03:55:49;;;;;;;6.83;2.10;;;5.80;99.90;;;;;;5096159;28;20203;-73
2022/04/08 03:58:16;;;;;;;6.40;2.33;;;5.90;99.90;;;;;;5096402;28;20206;-73
2022/04/08 04:00:44;;;;;;;6.87;1.93;;;5.80;99.90;;;;;;5097708;28;20245;-73
2022/04/08 04:03:10;;;;;;;7.20;2.00;;;5.80;99.90;;;;;;5097142;28;20226;-73
2022/04/08 04:05:37;;;;;;;4.00;1.70;;;5.80;99.90;;;;;;5097478;28;20257;-73
2022/04/08 04:08:05;;;;;;;6.57;1.70;;;5.80;99.90;;;;;;5098172;28;20248;-73
2022/04/08 04:10:31;;;;;;;10.93;2.33;;;5.70;99.90;;;;;;5095777;28;20327;-74
2022/04/08 04:12:58;;;;;;;8.03;2.20;;;5.60;99.90;;;;;;5096674;28;20198;-73
2022/04/08 04:15:25;;;;;;;4.37;1.80;;;5.60;99.90;;;;;;5097852;28;20271;-73
2022/04/08 04:17:52;;;;;;;10.87;2.13;;;5.60;99.90;;;;;;5101514;28;20188;-73
2022/04/08 04:20:19;;;;;;;7.07;2.00;;;5.70;99.90;;;;;;5102784;28;20221;-74
2022/04/08 04:22:47;;;;;;;6.63;1.97;;;5.60;99.90;;;;;;5103595;28;20214;-74
2022/04/08 04:25:13;;;;;;;6.43;2.60;;;5.70;99.90;;;;;;5104884;28;20231;-75
2022/04/08 04:27:40;;;;;;;5.20;2.03;;;5.60;99.90;;;;;;5105642;28;20195;-74
2022/04/08 04:30:07;;;;;;;4.70;1.80;;;5.70;99.90;;;;;;5106603;28;20203;-74
2022/04/08 04:32:34;;;;;;;5.77;1.70;;;5.70;99.90;;;;;;5106675;28;20260;-74
2022/04/08 04:35:06;;;;;;;6.67;2.00;;;5.60;99.90;;;;;;5100443;28;20233;-74
2022/04/08 04:37:33;;;;;;;8.20;2.37;;;5.60;99.90;;;;;;5101811;28;20207;-74
2022/04/08 04:40:00;;;;;;;4.67;1.83;;;5.60;99.90;;;;;;5104960;28;20237;-74
2022/04/08 04:42:28;;;;;;;5.97;2.00;;;5.60;99.90;;;;;;5105582;28;20219;-74
2022/04/08 04:44:55;;;;;;;7.60;2.10;;;5.60;99.90;;;;;;5104470;28;20269;-73
2022/04/08 04:47:21;;;;;;;13.13;2.43;;;5.60;99.90;;;;;;5098705;28;20202;-74
2022/04/08 04:49:48;;;;;;;6.43;2.20;;;5.60;99.90;;;;;;5099696;28;20202;-75
2022/04/08 04:52:16;;;;;;;7.13;2.20;;;5.70;99.90;;;;;;5100301;28;20206;-74
2022/04/08 04:54:43;;;;;;;5.40;2.13;;;5.70;99.90;;;;;;5099129;28;20265;-73
2022/04/08 04:57:09;;;;;;;5.47;2.00;;;5.70;99.90;;;;;;5098316;28;20200;-75
2022/04/08 04:59:36;;;;;;;7.47;2.13;;;5.70;99.90;;;;;;5096209;28;20256;-74
2022/04/08 05:02:03;;;;;;;7.93;1.90;;;5.70;99.90;;;;;;5096387;28;20203;-74
2022/04/08 05:04:31;;;;;;;12.37;2.07;;;5.70;99.90;;;;;;5095823;28;20227;-74
2022/04/08 05:06:57;;;;;;;8.33;3.37;;;5.70;99.90;;;;;;5095854;28;20204;-77
2022/04/08 05:09:25;;;;;;;8.03;2.27;;;5.80;99.90;;;;;;5096160;28;20222;-75
2022/04/08 05:11:52;;;;;;;9.60;2.37;;;5.80;99.90;;;;;;5096625;28;20204;-74
2022/04/08 05:14:22;;;;;;;6.33;1.80;;;5.80;99.90;;;;;;5094116;28;20235;-74
2022/04/08 05:16:49;;;;;;;5.40;1.70;;;5.90;99.90;;;;;;5093872;28;20208;-74
2022/04/08 05:19:16;;;;;;;7.23;2.07;;;5.90;99.90;;;;;;5093741;28;20556;-74
2022/04/08 05:21:43;;;;;;;6.93;2.27;;;5.90;99.90;;;;;;5093306;28;20189;-74
2022/04/08 05:24:09;;;;;;;6.83;2.20;;;6.00;99.90;;;;;;5093790;28;20301;-73
2022/04/08 05:26:37;;;;;;;6.60;1.90;;;6.00;99.90;;;;;;5094398;28;20200;-74
2022/04/08 05:29:04;;;;;;;7.90;1.97;;;6.00;99.90;;;;;;5095155;28;20204;-73
2022/04/08 05:31:31;;;;;;;4.67;2.27;;;6.00;99.90;;;;;;5095412;28;20257;-74
2022/04/08 05:33:57;;;;;;;7.90;2.80;;;6.00;99.90;;;;;;5095428;28;20651;-74
2022/04/08 05:36:24;;;;;;;8.40;2.27;;;6.10;99.90;;;;;;5095324;28;20195;-73
2022/04/08 05:38:50;;;;;;;11.57;2.27;;;6.10;99.90;;;;;;5095441;28;20203;-73
2022/04/08 05:41:17;;;;;;;6.00;2.00;;;6.10;99.90;;;;;;5095031;28;20249;-73
2022/04/08 05:43:45;;;;;;;6.73;1.97;;;6.10;99.90;;;;;;5095118;28;20280;-73
2022/04/08 05:46:12;;;;;;;5.77;2.10;;;6.20;99.90;;;;;;5095217;28;20208;-74
2022/04/08 05:48:38;;;;;;;5.80;2.40;;;6.20;99.90;;;;;;5095079;28;20752;-73
2022/04/08 05:51:05;;;;;;;10.10;2.80;;;6.20;99.90;;;;;;5095076;28;20207;-74
2022/04/08 05:53:32;;;;;;;7.93;2.60;;;6.20;99.90;;;;;;5094653;28;20208;-73
2022/04/08 05:55:59;;;;;;;7.03;2.00;;;6.20;99.90;;;;;;5095029;28;20200;-74
2022/04/08 05:58:26;;;;;;;6.03;2.13;;;6.10;99.90;;;;;;5094893;28;20200;-74
2022/04/08 06:00:54;;;;;;;8.43;2.33;;;6.20;99.90;;;;;;5094889;28;20258;-74
2022/04/08 06:03:20;;;;;;;8.37;2.30;;;6.20;99.90;;;;;;5094327;28;20282;-74
2022/04/08 06:05:47;;;;;;;3.33;1.90;;;6.20;99.90;;;;;;5094497;28;20196;-74
2022/04/08 06:08:16;;;;;;;5.37;1.90;;;6.20;99.90;;;;;;5094783;28;20200;-74
2022/04/08 06:10:43;;;;;;;6.90;2.40;;;6.20;99.90;;;;;;5094602;28;20283;-74
2022/04/08 06:13:09;;;;;;;7.43;2.50;;;6.30;99.90;;;;;;5095913;28;20200;-74
2022/04/08 06:15:36;;;;;;;5.67;2.00;;;6.40;99.90;;;;;;5098804;28;20222;-74
2022/04/08 06:18:04;;;;;;;6.97;2.13;;;6.30;99.90;;;;;;5100023;28;20254;-74
2022/04/08 06:20:31;;;;;;;8.57;2.80;;;6.40;99.90;;;;;;5100517;28;20582;-74
2022/04/08 06:22:58;;;;;;;8.87;2.37;;;6.40;99.90;;;;;;5098557;28;20284;-74
2022/04/08 06:25:25;;;;;;;6.27;2.33;;;6.50;99.90;;;;;;5097437;28;20574;-74
2022/04/08 06:27:59;;;;;;;7.63;2.30;;;6.50;99.90;;;;;;5095604;28;20200;-74
2022/04/08 06:30:26;;;;;;;5.17;2.00;;;6.60;99.90;;;;;;5095882;28;20257;-73
2022/04/08 06:32:53;;;;;;;4.83;1.87;;;6.70;99.90;;;;;;5094695;28;20192;-73
2022/04/08 06:35:21;;;;;;;4.53;2.30;;;6.70;99.90;;;;;;5094481;28;20196;-73
2022/04/08 06:37:48;;;;;;;5.97;2.03;;;6.90;99.90;;;;;;5095908;28;20563;-73
2022/04/08 06:40:15;;;;;;;8.13;2.40;;;6.90;99.90;;;;;;5094660;28;20262;-74
2022/04/08 06:42:42;;;;;;;5.07;2.03;;;7.10;99.90;;;;;;5095611;28;20218;-73
2022/04/08 06:45:09;;;;;;;9.07;2.80;;;7.10;99.90;;;;;;5096825;28;20196;-74
2022/04/08 06:47:45;;;;;;;5.67;2.70;;;7.20;99.90;;;;;;5094660;28;20204;-73
2022/04/08 06:50:12;;;;;;;7.13;2.50;;;7.20;99.90;;;;;;5094345;28;20201;-74
2022/04/08 06:52:40;;;;;;;6.23;2.23;;;7.20;99.90;;;;;;5094649;28;20714;-73
2022/04/08 06:55:09;;;;;;;7.93;2.87;;;7.20;99.90;;;;;;5095179;28;20277;-75
2022/04/08 06:57:37;;;;;;;6.23;2.30;;;7.20;99.90;;;;;;5095309;28;20238;-76
2022/04/08 07:00:05;;;;;;;7.40;2.57;;;7.30;99.90;;;;;;5098803;28;20200;-74
2022/04/08 07:02:31;;;;;;;6.63;2.50;;;7.40;99.90;;;;;;5094673;28;20203;-73
2022/04/08 07:04:58;;;;;;;10.07;2.37;;;7.40;99.90;;;;;;5094992;28;20228;-73
2022/04/08 07:07:28;;;;;;;10.87;3.03;;;7.20;99.90;;;;;;5095252;28;20799;-73
2022/04/08 07:09:57;;;;;;;7.53;3.10;;;7.20;99.90;;;;;;5094286;28;20196;-74
2022/04/08 07:12:24;;;;;;;11.13;2.63;;;7.30;99.90;;;;;;5094665;28;20196;-73
2022/04/08 07:14:51;;;;;;;7.17;2.33;;;7.30;99.90;;;;;;5094003;28;20555;-73
2022/04/08 07:17:17;;;;;;;8.97;2.47;;;7.20;99.90;;;;;;5097942;28;20200;-73
2022/04/08 07:19:44;;;;;;;5.93;2.50;;;7.40;99.90;;;;;;5097593;28;20537;-74
2022/04/08 07:22:11;;;;;;;8.93;2.77;;;7.40;99.90;;;;;;5097734;28;20196;-74
2022/04/08 07:24:37;;;;;;;7.40;2.70;;;7.50;99.90;;;;;;5097436;28;20289;-75
2022/04/08 07:27:07;;;;;;;6.60;2.37;;;7.70;99.90;;;;;;5098128;28;20202;-74
2022/04/08 07:29:33;;;;;;;4.73;2.13;;;7.60;99.90;;;;;;5097944;28;20672;-74
2022/04/08 07:32:00;;;;;;;7.30;2.70;;;7.50;99.90;;;;;;5098101;28;20207;-74
2022/04/08 07:34:27;;;;;;;8.03;2.43;;;7.70;99.90;;;;;;5098775;28;20544;-74
2022/04/08 07:36:53;;;;;;;7.93;2.50;;;7.70;99.90;;;;;;5097923;28;20273;-73
2022/04/08 07:39:20;;;;;;;8.83;2.17;;;7.70;99.90;;;;;;5097806;28;20200;-75
2022/04/08 07:41:47;;;;;;;6.43;2.47;;;7.70;99.90;;;;;;5097501;28;20720;-74
2022/04/08 07:44:15;;;;;;;8.83;2.37;;;7.70;99.90;;;;;;5097247;28;20273;-73
2022/04/08 07:46:41;;;;;;;12.57;3.60;;;7.90;99.90;;;;;;5097604;28;20201;-74
2022/04/08 07:49:08;;;;;;;5.90;2.20;;;8.00;99.90;;;;;;5097449;28;20193;-74
2022/04/08 07:51:34;;;;;;;7.53;2.73;;;7.80;99.90;;;;;;5097588;28;20553;-74
2022/04/08 07:54:01;;;;;;;6.00;1.93;;;7.90;99.90;;;;;;5097561;28;20257;-74
2022/04/08 07:56:28;;;;;;;11.57;2.40;;;7.80;99.90;;;;;;5097456;28;20204;-75
2022/04/08 07:58:55;;;;;;;8.10;2.40;;;7.80;99.90;;;;;;5097191;28;20545;-73
2022/04/08 08:01:23;;;;;;;7.27;2.40;;;7.70;99.90;;;;;;5096131;28;20242;-74
2022/04/08 08:03:50;;;;;;;7.33;2.13;;;7.80;99.90;;;;;;5096674;28;20216;-74
2022/04/08 08:06:16;;;;;;;10.53;2.53;;;7.80;99.90;;;;;;5096720;28;20200;-74
2022/04/08 08:08:44;;;;;;;7.10;2.27;;;7.90;99.90;;;;;;5097212;28;20200;-74
2022/04/08 08:11:12;;;;;;;8.03;2.57;;;7.80;99.90;;;;;;5097917;28;20205;-74
2022/04/08 08:13:38;;;;;;;12.17;2.60;;;7.90;99.90;;;;;;5098534;28;20197;-74
2022/04/08 08:16:07;;;;;;;10.03;2.33;;;7.80;99.90;;;;;;5098381;28;20725;-76
2022/04/08 08:18:35;;;;;;;8.30;2.57;;;8.00;99.90;;;;;;5102570;28;20205;-74
2022/04/08 08:21:01;;;;;;;8.23;2.57;;;7.90;99.90;;;;;;5103538;28;20200;-75
2022/04/08 08:23:28;;;;;;;6.57;2.30;;;8.00;99.90;;;;;;5101271;28;20695;-74
2022/04/08 08:25:56;;;;;;;8.73;2.93;;;7.90;99.90;;;;;;5101209;28;20201;-74
2022/04/08 08:28:23;;;;;;;6.20;2.73;;;7.80;99.90;;;;;;5101904;28;20197;-75
2022/04/08 08:30:49;;;;;;;8.33;2.37;;;7.80;99.90;;;;;;5101528;28;20283;-75
2022/04/08 08:33:16;;;;;;;10.23;2.77;;;7.60;99.90;;;;;;5097276;28;20655;-74
2022/04/08 08:35:45;;;;;;;6.87;2.40;;;7.60;99.90;;;;;;5096730;28;20196;-74
2022/04/08 08:38:12;;;;;;;7.17;2.27;;;7.70;99.90;;;;;;5096110;28;20200;-74
2022/04/08 08:40:44;;;;;;;6.07;2.27;;;7.70;99.90;;;;;;5096698;28;20250;-74
2022/04/08 08:43:17;;;;;;;7.83;3.40;;;7.70;99.90;;;;;;5095989;28;20724;-73
2022/04/08 08:45:44;;;;;;;10.57;2.60;;;7.70;99.90;;;;;;5096249;28;20315;-74
2022/04/08 08:48:13;;;;;;;4.53;2.40;;;7.70;99.90;;;;;;5096374;28;20200;-73
2022/04/08 08:50:40;;;;;;;5.80;2.47;;;7.40;99.90;;;;;;5096878;28;20597;-73
2022/04/08 08:53:09;;;;;;;5.93;2.23;;;7.20;99.90;;;;;;5096475;28;20193;-76
2022/04/08 08:55:36;;;;;;;6.67;3.00;;;7.10;99.90;;;;;;5096395;28;20253;-74
2022/04/08 08:58:02;;;;;;;6.73;2.63;;;7.00;99.90;;;;;;5096352;28;20200;-74
2022/04/08 09:00:29;;;;;;;9.50;2.47;;;7.00;99.90;;;;;;5103926;28;20246;-74
2022/04/08 09:02:56;;;;;;;8.13;2.57;;;6.70;99.90;;;;;;5104532;28;20253;-73
2022/04/08 09:05:25;;;;;;;5.50;2.40;;;6.50;99.90;;;;;;5106345;28;20296;-73
2022/04/08 09:07:57;;;;;;;7.63;2.47;;;6.50;99.90;;;;;;5103914;28;20199;-74
2022/04/08 09:10:29;;;;;;;6.13;2.70;;;6.40;99.90;;;;;;5097085;28;20200;-74
2022/04/08 09:12:57;;;;;;;8.30;2.40;;;6.40;99.90;;;;;;5096680;28;20610;-74
2022/04/08 09:15:24;;;;;;;7.83;3.50;;;6.30;99.90;;;;;;5096151;28;20202;-73
2022/04/08 09:17:51;;;;;;;7.10;3.20;;;6.40;99.90;;;;;;5095529;28;20195;-73
2022/04/08 09:20:18;;;;;;;6.77;2.53;;;6.50;99.90;;;;;;5095484;28;20202;-73
2022/04/08 09:22:54;;;;;;;7.70;2.73;;;6.40;99.90;;;;;;5095421;28;20606;-73
2022/04/08 09:25:25;;;;;;;10.50;3.20;;;6.30;99.90;;;;;;5095898;28;20314;-72
2022/04/08 09:27:57;;;;;;;5.77;2.50;;;6.40;99.90;;;;;;5097628;28;20253;-73
2022/04/08 09:30:24;;;;;;;4.93;2.20;;;6.10;99.90;;;;;;5098639;28;20199;-73
2022/04/08 09:32:51;;;;;;;8.20;2.73;;;5.90;99.90;;;;;;5095082;28;20599;-73
2022/04/08 09:35:19;;;;;;;8.80;3.13;;;5.90;99.90;;;;;;5094949;28;20202;-73
2022/04/08 09:38:00;;;;;;;4.53;2.50;;;5.80;99.90;;;;;;5097772;28;20231;-73
2022/04/08 09:40:26;;;;;;;5.73;2.40;;;5.70;99.90;;;;;;5098332;28;20211;-73
2022/04/08 09:42:55;;;;;;;5.13;2.40;;;5.80;99.90;;;;;;5094825;28;20229;-74
2022/04/08 09:45:29;;;;;;;5.53;2.63;;;5.90;99.90;;;;;;5094902;28;20224;-73
2022/04/08 09:47:56;;;;;;;8.60;2.33;;;5.80;99.90;;;;;;5094468;28;20287;-73
2022/04/08 09:50:24;;;;;;;5.73;2.93;;;5.90;99.90;;;;;;5094351;28;20192;-74
2022/04/08 09:52:50;;;;;;;8.60;2.47;;;6.10;99.90;;;;;;5094707;28;20200;-73
2022/04/08 09:55:17;;;;;;;3.17;1.97;;;5.90;99.90;;;;;;5094168;28;20658;-71
2022/04/08 09:57:46;;;;;;;4.13;2.37;;;5.80;99.90;;;;;;5094029;28;20260;-70
2022/04/08 10:00:15;;;;;;;3.23;1.90;;;5.70;99.90;;;;;;5094180;28;20197;-71
2022/04/08 10:02:46;;;;;;;4.93;2.70;;;5.70;99.90;;;;;;5093822;28;20249;-71
2022/04/08 10:05:13;;;;;;;2.43;2.10;;;5.80;99.90;;;;;;5094199;28;20221;-70
2022/04/08 10:07:41;;;;;;;6.57;2.30;;;5.70;99.90;;;;;;5094307;28;20238;-71
2022/04/08 10:10:14;;;;;;;5.97;2.23;;;5.80;99.90;;;;;;5094082;28;20221;-71
2022/04/08 10:12:50;;;;;;;3.97;2.50;;;5.90;99.90;;;;;;5094484;28;20203;-71
2022/04/08 10:15:27;;;;;;;6.67;2.67;;;5.90;99.90;;;;;;5095542;28;20654;-70
2022/04/08 10:17:59;;;;;;;5.30;2.30;;;6.10;99.90;;;;;;5095206;28;20647;-72
2022/04/08 10:20:28;;;;;;;8.13;5.37;;;6.00;99.90;;;;;;5094339;28;20253;-72
2022/04/08 10:23:05;;;;;;;5.00;2.10;;;6.20;99.90;;;;;;5094389;28;20195;-72
2022/04/08 10:25:37;;;;;;;6.07;3.30;;;6.30;99.90;;;;;;5094102;28;20226;-72
2022/04/08 10:28:05;;;;;;;6.13;5.47;;;6.60;99.90;;;;;;5097689;28;20223;-72
2022/04/08 10:30:36;;;;;;;4.83;2.70;;;6.70;99.90;;;;;;5093344;28;20196;-72
2022/04/08 10:33:07;;;;;;;4.80;2.40;;;6.60;99.90;;;;;;5093849;28;20203;-72
2022/04/08 10:35:34;;;;;;;2.60;1.80;;;6.30;99.90;;;;;;5094011;28;20659;-72
2022/04/08 10:38:03;;;;;;;6.00;2.30;;;6.40;99.90;;;;;;5096017;28;20621;-74
2022/04/08 10:40:31;;;;;;;5.13;3.37;;;6.50;99.90;;;;;;5096850;28;20229;-72
2022/04/08 10:42:59;;;;;;;4.20;3.03;;;6.30;99.90;;;;;;5096332;28;20199;-72
2022/04/08 10:45:26;;;;;;;3.33;2.13;;;6.30;99.90;;;;;;5095603;28;20234;-72
2022/04/08 10:47:56;;;;;;;6.83;2.30;;;6.30;99.90;;;;;;5096526;28;20279;-72
2022/04/08 10:50:27;;;;;;;2.97;2.10;;;6.20;99.90;;;;;;5096355;28;20555;-73
2022/04/08 10:53:07;;;;;;;3.83;2.30;;;5.90;99.90;;;;;;5097897;28;20200;-71
2022/04/08 10:55:48;;;;;;;23.90;14.00;;;5.90;99.90;;;;;;5097921;28;20192;-71
2022/04/08 10:58:16;;;;;;;32.30;19.17;;;6.00;99.90;;;;;;5097805;28;20659;-72
2022/04/08 11:00:44;;;;;;;6.13;4.10;;;6.10;99.90;;;;;;5098302;28;20279;-71
2022/04/08 11:03:12;;;;;;;10.37;7.07;;;6.10;99.90;;;;;;5097488;28;20204;-71
2022/04/08 11:05:39;;;;;;;8.57;5.27;;;6.20;99.90;;;;;;5096528;28;20228;-72
2022/04/08 11:08:07;;;;;;;5.87;3.97;;;6.40;99.90;;;;;;5097021;28;20200;-71
2022/04/08 11:10:34;;;;;;;6.20;3.10;;;6.20;99.90;;;;;;5097670;28;20242;-72
2022/04/08 11:13:01;;;;;;;4.43;2.53;;;5.90;99.90;;;;;;5097548;28;20647;-72
2022/04/08 11:15:30;;;;;;;4.03;2.30;;;5.90;99.90;;;;;;5097708;28;20204;-72
2022/04/08 11:17:58;;;;;;;2.70;2.23;;;5.90;99.90;;;;;;5097174;28;20693;-72
2022/04/08 11:20:26;;;;;;;6.23;3.97;;;5.70;99.90;;;;;;5096762;28;20663;-71
2022/04/08 11:22:54;;;;;;;4.90;2.90;;;5.60;99.90;;;;;;5096933;28;20234;-72
2022/04/08 11:25:23;;;;;;;5.63;2.60;;;5.80;99.90;;;;;;5097014;28;20229;-70
2022/04/08 11:28:01;;;;;;;3.60;2.30;;;5.80;99.90;;;;;;5097056;28;20216;-71
2022/04/08 11:30:29;;;;;;;2.20;2.00;;;5.80;99.90;;;;;;5096991;28;20215;-71
2022/04/08 11:32:56;;;;;;;3.33;2.90;;;5.80;99.90;;;;;;5097129;28;20195;-72
2022/04/08 11:35:23;;;;;;;3.47;2.83;;;5.80;99.90;;;;;;5096826;28;20286;-71
2022/04/08 11:37:51;;;;;;;2.43;2.10;;;5.70;99.90;;;;;;5096663;28;20287;-71
2022/04/08 11:40:19;;;;;;;2.23;1.87;;;5.80;99.90;;;;;;5096516;28;20269;-72
2022/04/08 11:42:46;;;;;;;3.23;2.17;;;5.60;99.90;;;;;;5096484;28;20256;-71
2022/04/08 11:45:13;;;;;;;2.93;2.00;;;5.60;99.90;;;;;;5096612;28;20640;-72
2022/04/08 11:47:46;;;;;;;3.43;1.97;;;5.70;99.90;;;;;;5097269;28;20197;-71
2022/04/08 11:50:13;;;;;;;3.47;1.90;;;5.90;99.90;;;;;;5097553;28;20196;-72
2022/04/08 11:52:40;;;;;;;2.13;1.93;;;6.00;99.90;;;;;;5096395;28;20709;-72
2022/04/08 11:55:09;;;;;;;3.70;3.17;;;6.10;99.90;;;;;;5096785;28;20197;-72
2022/04/08 11:57:38;;;;;;;1.90;1.80;;;6.10;99.90;;;;;;5096030;28;20199;-72
2022/04/08 12:00:09;;;;;;;3.50;2.27;;;6.20;99.90;;;;;;5096093;28;20192;-72
2022/04/08 12:02:37;;;;;;;2.80;2.00;;;6.30;99.90;;;;;;5095375;28;20196;-71
2022/04/08 12:05:05;;;;;;;3.30;2.00;;;6.50;99.90;;;;;;5095543;28;20215;-71
2022/04/08 12:07:33;;;;;;;3.93;2.27;;;6.50;99.90;;;;;;5095450;28;20196;-72
2022/04/08 12:10:01;;;;;;;3.63;2.43;;;6.40;99.90;;;;;;5095361;28;20200;-71
2022/04/08 12:12:30;;;;;;;2.20;2.00;;;6.40;99.90;;;;;;5095557;28;20245;-71
2022/04/08 12:15:07;;;;;;;2.93;2.20;;;6.30;99.90;;;;;;5095551;28;20230;-71
2022/04/08 12:17:38;;;;;;;2.77;2.00;;;6.30;99.90;;;;;;5095447;28;20203;-70
2022/04/08 12:20:06;;;;;;;3.20;2.10;;;6.30;99.90;;;;;;5095703;28;20605;-72
2022/04/08 12:22:34;;;;;;;2.37;1.87;;;6.20;99.90;;;;;;5095462;28;20197;-72
2022/04/08 12:25:00;;;;;;;2.07;1.70;;;6.20;99.90;;;;;;5095304;28;20229;-72
2022/04/08 12:27:33;;;;;;;2.30;2.10;;;6.20;99.90;;;;;;5095315;28;20667;-72
2022/04/08 12:30:00;;;;;;;2.60;1.87;;;6.10;99.90;;;;;;5095627;28;20200;-71
2022/04/08 12:32:34;;;;;;;3.40;2.37;;;6.00;99.90;;;;;;5096076;28;20197;-72
2022/04/08 12:35:00;;;;;;;2.50;2.30;;;5.80;99.90;;;;;;5096315;28;20204;-72
2022/04/08 12:37:27;;;;;;;2.30;1.53;;;5.60;99.90;;;;;;5096980;28;20277;-72
2022/04/08 12:39:54;;;;;;;1.87;1.67;;;5.60;99.90;;;;;;5096576;28;20204;-74
2022/04/08 12:42:20;;;;;;;1.10;1.00;;;5.50;99.90;;;;;;5100289;28;20196;-73
2022/04/08 12:44:48;;;;;;;3.37;1.90;;;5.40;99.90;;;;;;5100789;28;20203;-73
2022/04/08 12:47:15;;;;;;;2.20;1.30;;;5.20;99.90;;;;;;5099710;28;20217;-71
2022/04/08 12:49:42;;;;;;;2.10;1.90;;;5.10;99.90;;;;;;5095466;28;20225;-72
2022/04/08 12:52:08;;;;;;;1.53;1.20;;;5.20;99.90;;;;;;5095551;28;20200;-71
2022/04/08 12:54:35;;;;;;;1.63;1.53;;;5.20;99.90;;;;;;5095382;28;20260;-72
2022/04/08 12:57:02;;;;;;;1.97;1.30;;;5.10;99.90;;;;;;5096497;28;20227;-73